Etusivu
METAR-TAF:

METAR-TAF

Lentoasemat :

Enontekiön lentoasema

Enontekiö, Suomi

Leveyspiiri: 68-21-52N, Pituuspiiri: 023-25-39E, korkeus merenpinnasta: 308 m

Tämänhetkinen sää

Tämä raportti tehtiin 37 minuuttia sitten, kello 14.50 UTC
Tuuli 9 kn lännestä/lounaasta
Lämpötila 9°C
Kosteus 93%
Ilmanpaine 994 hPa
Näkyvyys 10 km tai enemmän
Hajanaisia pilviä 900 ft:n korkeudessa
Pilvistä 4800 ft:n korkeudessa
heikkoa sadetta

METAR: EFET 201450Z AUTO 25009KT 9999 -RA SCT009 OVC048 09/08 Q0994

Aika: 18:27 (15:27 UTC)


TAF: puuttuu

Säähavainnot ja -ennusteet yli 4000 lentoasemalta (METAR- ja TAF-raportit).

Käytössä olevat sääasemat on merkitty karttaan keltaisilla ja punaisilla pisteillä.

Aseta hiiri pisteen päälle nähdäksesi sääaseman nimen.

Klikkaa sitten nähdäksesi säähavainnot ja -ennusteet.

Kartan vaihtaminen: klikkaa mustalla rastilla varustettuja vihreitä pisteitä, niin voit zoomata sisään; viivalla varustettua vihreää pistettä, niin voit zoomata ulos tai vihreitä nuolia, niin pääset viereisille kartoille.


METAR-TAF: